sensor_id;sensor_type;location;lat;lon;timestamp;P1;durP1;ratioP1;P2;durP2;ratioP2
9128;SDS011;4599;50.906;6.786;2023-09-12T00:02:34;7.23;;;4.43;;
9128;SDS011;4599;50.906;6.786;2023-09-12T00:06:36;6.23;;;4.57;;
9128;SDS011;4599;50.906;6.786;2023-09-12T00:10:39;7.70;;;4.63;;
9128;SDS011;4599;50.906;6.786;2023-09-12T00:14:40;8.80;;;5.07;;
9128;SDS011;4599;50.906;6.786;2023-09-12T00:18:42;7.87;;;5.40;;
9128;SDS011;4599;50.906;6.786;2023-09-12T00:22:45;9.03;;;5.43;;
9128;SDS011;4599;50.906;6.786;2023-09-12T00:26:48;9.03;;;5.13;;
9128;SDS011;4599;50.906;6.786;2023-09-12T00:30:51;9.53;;;5.73;;
9128;SDS011;4599;50.906;6.786;2023-09-12T00:34:53;8.50;;;4.90;;
9128;SDS011;4599;50.906;6.786;2023-09-12T00:38:55;8.30;;;5.30;;
9128;SDS011;4599;50.906;6.786;2023-09-12T00:42:58;9.13;;;5.20;;
9128;SDS011;4599;50.906;6.786;2023-09-12T00:47:01;8.60;;;4.57;;
9128;SDS011;4599;50.906;6.786;2023-09-12T00:51:04;11.53;;;5.47;;
9128;SDS011;4599;50.906;6.786;2023-09-12T00:55:07;8.87;;;6.10;;
9128;SDS011;4599;50.906;6.786;2023-09-12T00:59:11;10.67;;;6.33;;
9128;SDS011;4599;50.906;6.786;2023-09-12T01:03:15;11.13;;;7.07;;
9128;SDS011;4599;50.906;6.786;2023-09-12T01:07:17;10.50;;;7.33;;
9128;SDS011;4599;50.906;6.786;2023-09-12T01:11:19;16.00;;;8.17;;
9128;SDS011;4599;50.906;6.786;2023-09-12T01:15:23;14.60;;;9.03;;
9128;SDS011;4599;50.906;6.786;2023-09-12T01:19:24;10.40;;;8.20;;
9128;SDS011;4599;50.906;6.786;2023-09-12T01:23:31;11.63;;;7.70;;
9128;SDS011;4599;50.906;6.786;2023-09-12T01:27:47;12.43;;;7.40;;
9128;SDS011;4599;50.906;6.786;2023-09-12T01:31:51;13.90;;;7.73;;
9128;SDS011;4599;50.906;6.786;2023-09-12T01:35:55;12.67;;;8.27;;
9128;SDS011;4599;50.906;6.786;2023-09-12T01:39:57;10.00;;;7.83;;
9128;SDS011;4599;50.906;6.786;2023-09-12T01:44:00;12.57;;;8.13;;
9128;SDS011;4599;50.906;6.786;2023-09-12T01:48:05;12.37;;;8.77;;
9128;SDS011;4599;50.906;6.786;2023-09-12T01:52:08;14.90;;;9.60;;
9128;SDS011;4599;50.906;6.786;2023-09-12T01:56:11;15.27;;;10.53;;
9128;SDS011;4599;50.906;6.786;2023-09-12T02:00:16;13.07;;;10.93;;
9128;SDS011;4599;50.906;6.786;2023-09-12T02:04:19;13.43;;;10.13;;
9128;SDS011;4599;50.906;6.786;2023-09-12T02:08:20;13.57;;;10.37;;
9128;SDS011;4599;50.906;6.786;2023-09-12T02:12:23;17.57;;;11.10;;
9128;SDS011;4599;50.906;6.786;2023-09-12T02:16:28;17.83;;;9.87;;
9128;SDS011;4599;50.906;6.786;2023-09-12T02:20:30;14.57;;;10.80;;
9128;SDS011;4599;50.906;6.786;2023-09-12T02:24:34;15.67;;;12.03;;
9128;SDS011;4599;50.906;6.786;2023-09-12T02:28:35;14.63;;;12.20;;
9128;SDS011;4599;50.906;6.786;2023-09-12T02:32:38;16.13;;;12.50;;
9128;SDS011;4599;50.906;6.786;2023-09-12T02:36:43;15.67;;;12.20;;
9128;SDS011;4599;50.906;6.786;2023-09-12T02:40:44;17.87;;;12.23;;
9128;SDS011;4599;50.906;6.786;2023-09-12T02:44:46;19.80;;;12.93;;
9128;SDS011;4599;50.906;6.786;2023-09-12T02:48:49;20.87;;;13.13;;
9128;SDS011;4599;50.906;6.786;2023-09-12T02:52:50;18.87;;;13.50;;
9128;SDS011;4599;50.906;6.786;2023-09-12T02:56:52;17.90;;;13.77;;
9128;SDS011;4599;50.906;6.786;2023-09-12T03:00:54;20.67;;;13.23;;
9128;SDS011;4599;50.906;6.786;2023-09-12T03:04:57;19.03;;;13.83;;
9128;SDS011;4599;50.906;6.786;2023-09-12T03:08:58;18.97;;;13.50;;
9128;SDS011;4599;50.906;6.786;2023-09-12T03:13:00;21.10;;;13.93;;
9128;SDS011;4599;50.906;6.786;2023-09-12T03:17:02;17.20;;;14.60;;
9128;SDS011;4599;50.906;6.786;2023-09-12T03:21:06;18.80;;;13.97;;
9128;SDS011;4599;50.906;6.786;2023-09-12T03:25:10;23.20;;;14.43;;
9128;SDS011;4599;50.906;6.786;2023-09-12T03:29:11;17.23;;;13.40;;
9128;SDS011;4599;50.906;6.786;2023-09-12T03:33:13;15.93;;;12.00;;
9128;SDS011;4599;50.906;6.786;2023-09-12T03:37:16;18.60;;;11.73;;
9128;SDS011;4599;50.906;6.786;2023-09-12T03:41:19;17.57;;;11.83;;
9128;SDS011;4599;50.906;6.786;2023-09-12T03:45:20;13.20;;;11.33;;
9128;SDS011;4599;50.906;6.786;2023-09-12T03:49:22;14.90;;;11.13;;
9128;SDS011;4599;50.906;6.786;2023-09-12T03:53:25;14.57;;;10.97;;
9128;SDS011;4599;50.906;6.786;2023-09-12T03:57:27;17.13;;;11.47;;
9128;SDS011;4599;50.906;6.786;2023-09-12T04:01:29;11.83;;;10.40;;
9128;SDS011;4599;50.906;6.786;2023-09-12T04:05:31;10.47;;;8.83;;
9128;SDS011;4599;50.906;6.786;2023-09-12T04:09:34;12.13;;;8.63;;
9128;SDS011;4599;50.906;6.786;2023-09-12T04:13:36;11.00;;;8.13;;
9128;SDS011;4599;50.906;6.786;2023-09-12T04:17:38;10.50;;;7.83;;
9128;SDS011;4599;50.906;6.786;2023-09-12T04:21:39;9.83;;;7.40;;
9128;SDS011;4599;50.906;6.786;2023-09-12T04:25:45;11.13;;;7.33;;
9128;SDS011;4599;50.906;6.786;2023-09-12T04:29:47;8.47;;;7.37;;
9128;SDS011;4599;50.906;6.786;2023-09-12T04:33:50;8.37;;;6.83;;
9128;SDS011;4599;50.906;6.786;2023-09-12T04:37:52;11.97;;;7.20;;
9128;SDS011;4599;50.906;6.786;2023-09-12T04:41:55;7.70;;;6.17;;
9128;SDS011;4599;50.906;6.786;2023-09-12T04:45:56;9.57;;;6.37;;
9128;SDS011;4599;50.906;6.786;2023-09-12T04:49:59;6.07;;;5.40;;
9128;SDS011;4599;50.906;6.786;2023-09-12T04:54:00;6.93;;;5.43;;
9128;SDS011;4599;50.906;6.786;2023-09-12T04:58:04;8.73;;;5.67;;
9128;SDS011;4599;50.906;6.786;2023-09-12T05:02:06;5.53;;;4.97;;
9128;SDS011;4599;50.906;6.786;2023-09-12T05:06:08;8.00;;;5.63;;
9128;SDS011;4599;50.906;6.786;2023-09-12T05:10:09;8.50;;;5.53;;
9128;SDS011;4599;50.906;6.786;2023-09-12T05:14:13;6.53;;;5.20;;
9128;SDS011;4599;50.906;6.786;2023-09-12T05:18:15;9.27;;;5.63;;
9128;SDS011;4599;50.906;6.786;2023-09-12T05:22:17;8.50;;;6.73;;
9128;SDS011;4599;50.906;6.786;2023-09-12T05:26:19;11.30;;;7.00;;
9128;SDS011;4599;50.906;6.786;2023-09-12T05:30:24;12.17;;;8.73;;
9128;SDS011;4599;50.906;6.786;2023-09-12T05:34:25;16.40;;;11.83;;
9128;SDS011;4599;50.906;6.786;2023-09-12T05:38:28;16.73;;;12.17;;
9128;SDS011;4599;50.906;6.786;2023-09-12T05:42:29;19.17;;;12.20;;
9128;SDS011;4599;50.906;6.786;2023-09-12T05:46:32;17.40;;;11.43;;
9128;SDS011;4599;50.906;6.786;2023-09-12T05:50:34;15.57;;;11.17;;
9128;SDS011;4599;50.906;6.786;2023-09-12T05:54:35;16.90;;;11.07;;
9128;SDS011;4599;50.906;6.786;2023-09-12T05:58:37;13.23;;;9.40;;
9128;SDS011;4599;50.906;6.786;2023-09-12T06:07:38;10.77;;;7.77;;
9128;SDS011;4599;50.906;6.786;2023-09-12T06:22:49;18.83;;;13.30;;
9128;SDS011;4599;50.906;6.786;2023-09-12T06:26:50;22.43;;;13.77;;
9128;SDS011;4599;50.906;6.786;2023-09-12T06:30:54;22.00;;;15.23;;
9128;SDS011;4599;50.906;6.786;2023-09-12T06:34:56;18.00;;;12.87;;
9128;SDS011;4599;50.906;6.786;2023-09-12T06:38:59;20.33;;;14.93;;
9128;SDS011;4599;50.906;6.786;2023-09-12T06:43:01;19.60;;;13.97;;
9128;SDS011;4599;50.906;6.786;2023-09-12T06:47:03;21.93;;;13.13;;
9128;SDS011;4599;50.906;6.786;2023-09-12T06:51:07;17.17;;;11.50;;
9128;SDS011;4599;50.906;6.786;2023-09-12T06:55:19;16.50;;;11.57;;
9128;SDS011;4599;50.906;6.786;2023-09-12T06:59:22;14.23;;;10.30;;
9128;SDS011;4599;50.906;6.786;2023-09-12T07:03:23;18.27;;;10.90;;
9128;SDS011;4599;50.906;6.786;2023-09-12T07:07:25;12.17;;;9.20;;
9128;SDS011;4599;50.906;6.786;2023-09-12T07:11:28;12.33;;;9.97;;
9128;SDS011;4599;50.906;6.786;2023-09-12T07:15:31;10.80;;;8.77;;
9128;SDS011;4599;50.906;6.786;2023-09-12T07:19:33;15.07;;;10.37;;
9128;SDS011;4599;50.906;6.786;2023-09-12T07:23:35;14.70;;;10.20;;
9128;SDS011;4599;50.906;6.786;2023-09-12T07:27:39;13.33;;;10.37;;
9128;SDS011;4599;50.906;6.786;2023-09-12T07:31:41;15.80;;;10.57;;
9128;SDS011;4599;50.906;6.786;2023-09-12T07:35:43;15.67;;;10.57;;
9128;SDS011;4599;50.906;6.786;2023-09-12T07:39:45;13.47;;;11.00;;
9128;SDS011;4599;50.906;6.786;2023-09-12T07:43:48;12.47;;;10.00;;
9128;SDS011;4599;50.906;6.786;2023-09-12T07:47:50;15.30;;;10.20;;
9128;SDS011;4599;50.906;6.786;2023-09-12T07:51:51;12.10;;;10.20;;
9128;SDS011;4599;50.906;6.786;2023-09-12T07:55:53;13.30;;;9.83;;
9128;SDS011;4599;50.906;6.786;2023-09-12T07:59:56;11.63;;;8.97;;
9128;SDS011;4599;50.906;6.786;2023-09-12T08:03:58;10.27;;;8.87;;
9128;SDS011;4599;50.906;6.786;2023-09-12T08:08:00;13.40;;;8.20;;
9128;SDS011;4599;50.906;6.786;2023-09-12T08:12:02;11.33;;;7.93;;
9128;SDS011;4599;50.906;6.786;2023-09-12T08:16:05;9.27;;;7.47;;
9128;SDS011;4599;50.906;6.786;2023-09-12T08:20:07;10.27;;;7.13;;
9128;SDS011;4599;50.906;6.786;2023-09-12T08:24:09;11.50;;;6.87;;
9128;SDS011;4599;50.906;6.786;2023-09-12T08:28:11;12.27;;;6.77;;
9128;SDS011;4599;50.906;6.786;2023-09-12T08:32:14;7.30;;;5.83;;
9128;SDS011;4599;50.906;6.786;2023-09-12T08:36:15;8.40;;;5.93;;
9128;SDS011;4599;50.906;6.786;2023-09-12T08:40:17;9.03;;;5.67;;
9128;SDS011;4599;50.906;6.786;2023-09-12T08:44:19;7.93;;;5.77;;
9128;SDS011;4599;50.906;6.786;2023-09-12T08:48:23;7.43;;;4.77;;
9128;SDS011;4599;50.906;6.786;2023-09-12T08:52:26;8.57;;;5.13;;
9128;SDS011;4599;50.906;6.786;2023-09-12T08:56:28;6.43;;;4.83;;
9128;SDS011;4599;50.906;6.786;2023-09-12T09:00:30;6.60;;;5.13;;
9128;SDS011;4599;50.906;6.786;2023-09-12T09:04:34;6.27;;;4.53;;
9128;SDS011;4599;50.906;6.786;2023-09-12T09:08:38;6.57;;;4.33;;
9128;SDS011;4599;50.906;6.786;2023-09-12T09:12:42;5.93;;;4.23;;
9128;SDS011;4599;50.906;6.786;2023-09-12T09:16:44;5.37;;;4.47;;
9128;SDS011;4599;50.906;6.786;2023-09-12T09:20:48;9.00;;;4.50;;
9128;SDS011;4599;50.906;6.786;2023-09-12T09:24:49;5.90;;;4.33;;
9128;SDS011;4599;50.906;6.786;2023-09-12T09:29:02;5.23;;;4.07;;
9128;SDS011;4599;50.906;6.786;2023-09-12T09:33:04;5.37;;;4.57;;
9128;SDS011;4599;50.906;6.786;2023-09-12T09:37:08;5.40;;;4.60;;
9128;SDS011;4599;50.906;6.786;2023-09-12T09:41:11;6.97;;;5.07;;
9128;SDS011;4599;50.906;6.786;2023-09-12T09:45:13;7.00;;;4.90;;
9128;SDS011;4599;50.906;6.786;2023-09-12T09:49:15;11.70;;;4.83;;
9128;SDS011;4599;50.906;6.786;2023-09-12T09:53:18;7.63;;;4.70;;
9128;SDS011;4599;50.906;6.786;2023-09-12T09:57:25;6.00;;;4.20;;
9128;SDS011;4599;50.906;6.786;2023-09-12T10:01:27;5.47;;;3.63;;
9128;SDS011;4599;50.906;6.786;2023-09-12T10:05:29;6.88;;;4.28;;
9128;SDS011;4599;50.906;6.786;2023-09-12T10:09:36;6.18;;;3.97;;
9128;SDS011;4599;50.906;6.786;2023-09-12T10:13:39;8.05;;;3.83;;
9128;SDS011;4599;50.906;6.786;2023-09-12T10:17:47;5.47;;;3.60;;
9128;SDS011;4599;50.906;6.786;2023-09-12T10:21:59;6.18;;;4.85;;
9128;SDS011;4599;50.906;6.786;2023-09-12T10:26:10;7.15;;;5.57;;
9128;SDS011;4599;50.906;6.786;2023-09-12T10:30:13;4.75;;;4.35;;
9128;SDS011;4599;50.906;6.786;2023-09-12T10:34:18;7.18;;;4.90;;
9128;SDS011;4599;50.906;6.786;2023-09-12T10:38:21;6.90;;;4.90;;
9128;SDS011;4599;50.906;6.786;2023-09-12T10:42:29;4.82;;;4.30;;
9128;SDS011;4599;50.906;6.786;2023-09-12T10:46:31;4.65;;;4.22;;
9128;SDS011;4599;50.906;6.786;2023-09-12T10:50:33;4.43;;;3.20;;
9128;SDS011;4599;50.906;6.786;2023-09-12T10:54:36;4.45;;;4.05;;
9128;SDS011;4599;50.906;6.786;2023-09-12T11:07:45;5.47;;;3.20;;
9128;SDS011;4599;50.906;6.786;2023-09-12T11:11:48;6.95;;;3.28;;
9128;SDS011;4599;50.906;6.786;2023-09-12T11:16:12;4.43;;;3.42;;
9128;SDS011;4599;50.906;6.786;2023-09-12T11:20:15;5.05;;;3.08;;
9128;SDS011;4599;50.906;6.786;2023-09-12T11:24:18;3.53;;;3.13;;
9128;SDS011;4599;50.906;6.786;2023-09-12T11:28:21;3.45;;;2.78;;
9128;SDS011;4599;50.906;6.786;2023-09-12T11:32:27;5.72;;;3.50;;
9128;SDS011;4599;50.906;6.786;2023-09-12T11:36:37;3.97;;;3.58;;
9128;SDS011;4599;50.906;6.786;2023-09-12T11:40:43;3.67;;;3.38;;
9128;SDS011;4599;50.906;6.786;2023-09-12T11:44:48;5.63;;;3.72;;
9128;SDS011;4599;50.906;6.786;2023-09-12T11:48:52;3.72;;;3.40;;
9128;SDS011;4599;50.906;6.786;2023-09-12T11:53:01;5.13;;;3.92;;
9128;SDS011;4599;50.906;6.786;2023-09-12T11:57:03;7.30;;;5.10;;
9128;SDS011;4599;50.906;6.786;2023-09-12T12:01:05;5.88;;;4.20;;
9128;SDS011;4599;50.906;6.786;2023-09-12T12:05:08;5.40;;;3.72;;
9128;SDS011;4599;50.906;6.786;2023-09-12T12:09:10;4.63;;;3.88;;
9128;SDS011;4599;50.906;6.786;2023-09-12T12:13:12;5.57;;;3.88;;
9128;SDS011;4599;50.906;6.786;2023-09-12T12:17:18;5.45;;;3.83;;
9128;SDS011;4599;50.906;6.786;2023-09-12T12:21:21;4.88;;;4.35;;
9128;SDS011;4599;50.906;6.786;2023-09-12T12:25:22;5.95;;;3.65;;
9128;SDS011;4599;50.906;6.786;2023-09-12T12:29:24;6.47;;;4.30;;
9128;SDS011;4599;50.906;6.786;2023-09-12T12:33:29;6.15;;;4.18;;
9128;SDS011;4599;50.906;6.786;2023-09-12T12:37:54;4.45;;;3.65;;
9128;SDS011;4599;50.906;6.786;2023-09-12T12:42:06;5.22;;;3.97;;
9128;SDS011;4599;50.906;6.786;2023-09-12T12:46:09;6.10;;;3.95;;
9128;SDS011;4599;50.906;6.786;2023-09-12T12:50:14;6.97;;;4.10;;
9128;SDS011;4599;50.906;6.786;2023-09-12T12:54:21;5.03;;;4.10;;
9128;SDS011;4599;50.906;6.786;2023-09-12T12:58:23;7.75;;;4.95;;
9128;SDS011;4599;50.906;6.786;2023-09-12T13:02:25;6.97;;;5.25;;
9128;SDS011;4599;50.906;6.786;2023-09-12T13:06:26;9.65;;;5.25;;
9128;SDS011;4599;50.906;6.786;2023-09-12T13:10:29;8.30;;;5.80;;
9128;SDS011;4599;50.906;6.786;2023-09-12T13:14:31;9.77;;;5.40;;
9128;SDS011;4599;50.906;6.786;2023-09-12T13:18:33;5.85;;;5.07;;
9128;SDS011;4599;50.906;6.786;2023-09-12T13:22:35;10.63;;;5.13;;
9128;SDS011;4599;50.906;6.786;2023-09-12T13:26:38;5.05;;;4.30;;
9128;SDS011;4599;50.906;6.786;2023-09-12T13:30:40;5.07;;;4.22;;
9128;SDS011;4599;50.906;6.786;2023-09-12T13:34:42;6.68;;;4.75;;
9128;SDS011;4599;50.906;6.786;2023-09-12T13:38:44;8.70;;;5.15;;
9128;SDS011;4599;50.906;6.786;2023-09-12T13:42:50;9.02;;;5.15;;
9128;SDS011;4599;50.906;6.786;2023-09-12T13:46:51;5.82;;;4.38;;
9128;SDS011;4599;50.906;6.786;2023-09-12T13:50:53;7.03;;;4.10;;
9128;SDS011;4599;50.906;6.786;2023-09-12T13:54:56;4.78;;;3.70;;
9128;SDS011;4599;50.906;6.786;2023-09-12T13:59:01;6.05;;;3.92;;
9128;SDS011;4599;50.906;6.786;2023-09-12T14:03:03;7.53;;;4.28;;
9128;SDS011;4599;50.906;6.786;2023-09-12T14:07:06;5.22;;;3.70;;
9128;SDS011;4599;50.906;6.786;2023-09-12T14:11:08;5.57;;;4.00;;
9128;SDS011;4599;50.906;6.786;2023-09-12T14:15:26;6.85;;;4.20;;
9128;SDS011;4599;50.906;6.786;2023-09-12T14:19:29;5.40;;;4.20;;
9128;SDS011;4599;50.906;6.786;2023-09-12T14:23:30;6.32;;;4.43;;
9128;SDS011;4599;50.906;6.786;2023-09-12T14:27:33;7.72;;;4.70;;
9128;SDS011;4599;50.906;6.786;2023-09-12T14:31:36;6.72;;;4.95;;
9128;SDS011;4599;50.906;6.786;2023-09-12T14:35:39;6.88;;;4.90;;
9128;SDS011;4599;50.906;6.786;2023-09-12T14:39:41;5.35;;;4.18;;
9128;SDS011;4599;50.906;6.786;2023-09-12T14:43:42;9.80;;;5.35;;
9128;SDS011;4599;50.906;6.786;2023-09-12T14:47:46;6.82;;;4.95;;
9128;SDS011;4599;50.906;6.786;2023-09-12T14:51:49;9.57;;;5.30;;
9128;SDS011;4599;50.906;6.786;2023-09-12T14:55:51;7.72;;;4.82;;
9128;SDS011;4599;50.906;6.786;2023-09-12T14:59:53;6.72;;;5.93;;
9128;SDS011;4599;50.906;6.786;2023-09-12T15:03:58;9.20;;;6.75;;
9128;SDS011;4599;50.906;6.786;2023-09-12T15:08:00;9.15;;;6.47;;
9128;SDS011;4599;50.906;6.786;2023-09-12T15:12:01;7.65;;;6.10;;
9128;SDS011;4599;50.906;6.786;2023-09-12T15:16:04;8.02;;;5.68;;
9128;SDS011;4599;50.906;6.786;2023-09-12T15:20:09;10.65;;;5.93;;
9128;SDS011;4599;50.906;6.786;2023-09-12T15:24:11;9.10;;;5.78;;
9128;SDS011;4599;50.906;6.786;2023-09-12T15:28:13;6.53;;;5.45;;
9128;SDS011;4599;50.906;6.786;2023-09-12T15:32:15;6.75;;;5.03;;
9128;SDS011;4599;50.906;6.786;2023-09-12T15:36:18;8.18;;;5.65;;
9128;SDS011;4599;50.906;6.786;2023-09-12T15:40:19;8.57;;;6.40;;
9128;SDS011;4599;50.906;6.786;2023-09-12T15:44:21;8.45;;;6.40;;
9128;SDS011;4599;50.906;6.786;2023-09-12T15:48:22;9.02;;;7.18;;
9128;SDS011;4599;50.906;6.786;2023-09-12T15:52:25;11.05;;;6.90;;
9128;SDS011;4599;50.906;6.786;2023-09-12T15:56:28;7.78;;;6.47;;
9128;SDS011;4599;50.906;6.786;2023-09-12T16:00:30;11.13;;;7.32;;
9128;SDS011;4599;50.906;6.786;2023-09-12T16:04:31;9.43;;;6.30;;
9128;SDS011;4599;50.906;6.786;2023-09-12T16:08:36;10.15;;;7.05;;
9128;SDS011;4599;50.906;6.786;2023-09-12T16:12:37;11.73;;;7.10;;
9128;SDS011;4599;50.906;6.786;2023-09-12T16:16:39;9.50;;;6.78;;
9128;SDS011;4599;50.906;6.786;2023-09-12T16:20:41;13.63;;;7.32;;
9128;SDS011;4599;50.906;6.786;2023-09-12T16:24:44;7.53;;;6.28;;
9128;SDS011;4599;50.906;6.786;2023-09-12T16:28:45;7.72;;;5.95;;
9128;SDS011;4599;50.906;6.786;2023-09-12T16:32:47;9.25;;;6.40;;
9128;SDS011;4599;50.906;6.786;2023-09-12T16:36:49;9.05;;;6.07;;
9128;SDS011;4599;50.906;6.786;2023-09-12T16:40:52;6.20;;;5.28;;
9128;SDS011;4599;50.906;6.786;2023-09-12T16:44:54;7.13;;;5.90;;
9128;SDS011;4599;50.906;6.786;2023-09-12T16:48:56;7.63;;;6.00;;
9128;SDS011;4599;50.906;6.786;2023-09-12T16:52:57;8.57;;;5.97;;
9128;SDS011;4599;50.906;6.786;2023-09-12T16:57:00;5.97;;;5.00;;
9128;SDS011;4599;50.906;6.786;2023-09-12T17:01:03;8.60;;;5.10;;
9128;SDS011;4599;50.906;6.786;2023-09-12T17:05:06;5.47;;;4.53;;
9128;SDS011;4599;50.906;6.786;2023-09-12T17:09:13;9.23;;;5.60;;
9128;SDS011;4599;50.906;6.786;2023-09-12T17:13:17;8.40;;;5.60;;
9128;SDS011;4599;50.906;6.786;2023-09-12T17:17:18;5.97;;;4.83;;
9128;SDS011;4599;50.906;6.786;2023-09-12T17:21:20;7.33;;;4.87;;
9128;SDS011;4599;50.906;6.786;2023-09-12T17:25:22;6.50;;;4.80;;
9128;SDS011;4599;50.906;6.786;2023-09-12T17:29:25;6.60;;;5.50;;
9128;SDS011;4599;50.906;6.786;2023-09-12T17:33:27;7.03;;;5.20;;
9128;SDS011;4599;50.906;6.786;2023-09-12T17:37:29;7.20;;;5.03;;
9128;SDS011;4599;50.906;6.786;2023-09-12T17:41:31;9.13;;;4.80;;
9128;SDS011;4599;50.906;6.786;2023-09-12T17:45:34;11.43;;;5.17;;
9128;SDS011;4599;50.906;6.786;2023-09-12T17:49:35;9.20;;;5.57;;
9128;SDS011;4599;50.906;6.786;2023-09-12T17:53:37;9.33;;;5.07;;
9128;SDS011;4599;50.906;6.786;2023-09-12T17:57:40;6.33;;;5.70;;
9128;SDS011;4599;50.906;6.786;2023-09-12T18:01:44;8.27;;;5.77;;
9128;SDS011;4599;50.906;6.786;2023-09-12T18:05:45;9.37;;;5.97;;
9128;SDS011;4599;50.906;6.786;2023-09-12T18:09:47;11.43;;;7.23;;
9128;SDS011;4599;50.906;6.786;2023-09-12T18:13:50;13.33;;;6.53;;
9128;SDS011;4599;50.906;6.786;2023-09-12T18:17:52;8.53;;;6.70;;
9128;SDS011;4599;50.906;6.786;2023-09-12T18:21:54;14.10;;;7.33;;
9128;SDS011;4599;50.906;6.786;2023-09-12T18:25:58;15.63;;;8.17;;
9128;SDS011;4599;50.906;6.786;2023-09-12T18:30:00;14.97;;;8.13;;
9128;SDS011;4599;50.906;6.786;2023-09-12T18:34:03;12.37;;;8.17;;
9128;SDS011;4599;50.906;6.786;2023-09-12T18:38:06;15.33;;;8.57;;
9128;SDS011;4599;50.906;6.786;2023-09-12T18:42:07;20.43;;;8.53;;
9128;SDS011;4599;50.906;6.786;2023-09-12T18:46:09;12.97;;;8.27;;
9128;SDS011;4599;50.906;6.786;2023-09-12T18:50:13;13.53;;;8.13;;
9128;SDS011;4599;50.906;6.786;2023-09-12T18:54:18;15.77;;;6.27;;
9128;SDS011;4599;50.906;6.786;2023-09-12T18:58:20;5.23;;;2.13;;
9128;SDS011;4599;50.906;6.786;2023-09-12T19:02:22;6.50;;;2.17;;
9128;SDS011;4599;50.906;6.786;2023-09-12T19:06:27;3.87;;;1.60;;
9128;SDS011;4599;50.906;6.786;2023-09-12T19:10:29;7.00;;;2.10;;
9128;SDS011;4599;50.906;6.786;2023-09-12T19:14:31;4.13;;;1.70;;
9128;SDS011;4599;50.906;6.786;2023-09-12T19:18:32;5.13;;;2.00;;
9128;SDS011;4599;50.906;6.786;2023-09-12T19:22:36;6.10;;;2.17;;
9128;SDS011;4599;50.906;6.786;2023-09-12T19:26:37;6.07;;;2.07;;
9128;SDS011;4599;50.906;6.786;2023-09-12T19:30:39;3.23;;;2.20;;
9128;SDS011;4599;50.906;6.786;2023-09-12T19:34:40;3.53;;;2.17;;
9128;SDS011;4599;50.906;6.786;2023-09-12T19:38:44;4.63;;;2.00;;
9128;SDS011;4599;50.906;6.786;2023-09-12T19:42:46;3.97;;;2.03;;
9128;SDS011;4599;50.906;6.786;2023-09-12T19:46:48;4.60;;;1.90;;
9128;SDS011;4599;50.906;6.786;2023-09-12T19:50:49;3.20;;;1.97;;
9128;SDS011;4599;50.906;6.786;2023-09-12T19:54:53;4.00;;;2.00;;
9128;SDS011;4599;50.906;6.786;2023-09-12T19:58:54;5.53;;;2.10;;
9128;SDS011;4599;50.906;6.786;2023-09-12T20:02:56;4.13;;;2.20;;
9128;SDS011;4599;50.906;6.786;2023-09-12T20:06:58;7.50;;;2.13;;
9128;SDS011;4599;50.906;6.786;2023-09-12T20:11:03;5.43;;;2.00;;
9128;SDS011;4599;50.906;6.786;2023-09-12T20:15:10;7.43;;;2.17;;
9128;SDS011;4599;50.906;6.786;2023-09-12T20:19:12;4.90;;;2.23;;
9128;SDS011;4599;50.906;6.786;2023-09-12T20:23:14;4.47;;;2.53;;
9128;SDS011;4599;50.906;6.786;2023-09-12T20:27:17;5.43;;;2.70;;
9128;SDS011;4599;50.906;6.786;2023-09-12T20:31:18;6.50;;;2.90;;
9128;SDS011;4599;50.906;6.786;2023-09-12T20:35:20;3.70;;;2.30;;
9128;SDS011;4599;50.906;6.786;2023-09-12T20:39:24;6.37;;;2.53;;
9128;SDS011;4599;50.906;6.786;2023-09-12T20:43:30;2.33;;;2.13;;
9128;SDS011;4599;50.906;6.786;2023-09-12T20:47:31;2.00;;;1.80;;
9128;SDS011;4599;50.906;6.786;2023-09-12T20:51:33;2.60;;;2.00;;
9128;SDS011;4599;50.906;6.786;2023-09-12T20:55:35;5.77;;;2.30;;
9128;SDS011;4599;50.906;6.786;2023-09-12T20:59:39;4.90;;;2.10;;
9128;SDS011;4599;50.906;6.786;2023-09-12T21:03:41;6.47;;;2.40;;
9128;SDS011;4599;50.906;6.786;2023-09-12T21:07:43;3.00;;;2.70;;
9128;SDS011;4599;50.906;6.786;2023-09-12T21:11:45;7.27;;;2.67;;
9128;SDS011;4599;50.906;6.786;2023-09-12T21:15:48;5.27;;;3.20;;
9128;SDS011;4599;50.906;6.786;2023-09-12T21:19:50;5.53;;;3.23;;
9128;SDS011;4599;50.906;6.786;2023-09-12T21:23:52;4.30;;;3.03;;
9128;SDS011;4599;50.906;6.786;2023-09-12T21:27:53;4.00;;;3.20;;
9128;SDS011;4599;50.906;6.786;2023-09-12T21:31:57;3.67;;;2.97;;
9128;SDS011;4599;50.906;6.786;2023-09-12T21:35:58;4.47;;;3.30;;
9128;SDS011;4599;50.906;6.786;2023-09-12T21:40:00;5.97;;;3.47;;
9128;SDS011;4599;50.906;6.786;2023-09-12T21:44:02;5.23;;;3.30;;
9128;SDS011;4599;50.906;6.786;2023-09-12T21:48:06;3.67;;;3.30;;
9128;SDS011;4599;50.906;6.786;2023-09-12T21:52:08;5.97;;;3.30;;
9128;SDS011;4599;50.906;6.786;2023-09-12T21:56:10;9.13;;;2.97;;
9128;SDS011;4599;50.906;6.786;2023-09-12T22:00:11;3.67;;;2.97;;
9128;SDS011;4599;50.906;6.786;2023-09-12T22:04:14;3.87;;;2.80;;
9128;SDS011;4599;50.906;6.786;2023-09-12T22:08:16;5.50;;;3.40;;
9128;SDS011;4599;50.906;6.786;2023-09-12T22:12:17;4.00;;;3.03;;
9128;SDS011;4599;50.906;6.786;2023-09-12T22:16:20;5.40;;;3.63;;
9128;SDS011;4599;50.906;6.786;2023-09-12T22:20:23;4.30;;;3.57;;
9128;SDS011;4599;50.906;6.786;2023-09-12T22:24:25;6.73;;;3.97;;
9128;SDS011;4599;50.906;6.786;2023-09-12T22:28:26;4.10;;;3.70;;
9128;SDS011;4599;50.906;6.786;2023-09-12T22:32:28;6.53;;;4.17;;
9128;SDS011;4599;50.906;6.786;2023-09-12T22:36:33;6.10;;;4.10;;
9128;SDS011;4599;50.906;6.786;2023-09-12T22:40:35;8.47;;;4.20;;
9128;SDS011;4599;50.906;6.786;2023-09-12T22:44:36;7.80;;;4.50;;
9128;SDS011;4599;50.906;6.786;2023-09-12T22:48:38;6.63;;;4.90;;
9128;SDS011;4599;50.906;6.786;2023-09-12T22:52:42;7.77;;;4.80;;
9128;SDS011;4599;50.906;6.786;2023-09-12T22:56:44;6.77;;;4.47;;
9128;SDS011;4599;50.906;6.786;2023-09-12T23:00:45;7.00;;;4.77;;
9128;SDS011;4599;50.906;6.786;2023-09-12T23:04:47;7.90;;;4.73;;
9128;SDS011;4599;50.906;6.786;2023-09-12T23:08:50;9.03;;;4.90;;
9128;SDS011;4599;50.906;6.786;2023-09-12T23:12:52;9.33;;;5.37;;
9128;SDS011;4599;50.906;6.786;2023-09-12T23:16:53;7.17;;;5.20;;
9128;SDS011;4599;50.906;6.786;2023-09-12T23:20:55;5.87;;;5.27;;
9128;SDS011;4599;50.906;6.786;2023-09-12T23:24:58;8.60;;;5.33;;
9128;SDS011;4599;50.906;6.786;2023-09-12T23:28:59;5.83;;;5.20;;
9128;SDS011;4599;50.906;6.786;2023-09-12T23:33:02;5.83;;;5.23;;
9128;SDS011;4599;50.906;6.786;2023-09-12T23:37:04;7.00;;;5.27;;
9128;SDS011;4599;50.906;6.786;2023-09-12T23:41:07;8.97;;;5.67;;
9128;SDS011;4599;50.906;6.786;2023-09-12T23:45:10;6.50;;;5.73;;
9128;SDS011;4599;50.906;6.786;2023-09-12T23:49:12;8.70;;;5.63;;
9128;SDS011;4599;50.906;6.786;2023-09-12T23:53:13;6.90;;;6.00;;
9128;SDS011;4599;50.906;6.786;2023-09-12T23:57:16;8.10;;;5.90;;
